Domov               UVHVVR             MKGP            O straneh              
ZDRAVSTVENO VARSTVO RASTLIN
  MREŽA AGROMET. POSTAJ
 ► PROGNOSTIČNA OBVESTILA
AGROMETEOROLOŠKI PODATKI -
ARSO
OBVLADOVANJE TVEGANJ ZARADI
NEUGODNIH VREMENSKIH RAZMER
  ► NARAVNE NESREČE
  ► SUŠA/MOČA
  ► NAMAKANJE
  ► ŽLED (gozdarstvo)
KARTOGRAFSKI PRIKAZI
SPLETNE POVEZAVE
PROJEKTI IN PUBLIKACIJE

AGROMETEOROLOŠKA MREŽA: VREMENSKE POSTAJE IN FENOLOŠKA OPAZOVANJA

Pregled podatkov za lokacijo Črnova (Gradišnik), meteorološka postaja 22213

Pregled senzorjev na lokaciji

ID Ime Zadnja
vrednost
Datum
zadnje
spremembe
Tip
senzorja
4194 Temperatura 2 m ( °C) 19,24 °C 28.6.2017 17:00 Generic -40 - +60 °C
4195 Relativna vlaga 2 m (% RH) 98,12 % RH 28.6.2017 17:00 Generic 0 - 100 %
4196 Omočenost lista (U) 10 U 28.6.2017 17:00 A730WET
4197 Padavine 0.2 mm (mm) 0,4 mm 28.6.2017 17:00 Generic 0.2 mm

Pregled podatkov zadnjih 24 ur

Zap.
št.
Datum in čas Črnova (Gradišnik)
Omočenost
lista
Padavine
0.2
mm
Relativna
vlaga
2
m
Temperatura
2
m
0 28.6.2017 16:00 0,4 98,12 19,24
1 28.6.2017 15:30 0 97,83 18,95
2 28.6.2017 15:00 2,4 98,02 18,46
3 28.6.2017 14:30 1,4 97,85 17,85
4 28.6.2017 14:00 0,4 98,07 18,17
5 28.6.2017 13:30 2 97,53 17,88
6 28.6.2017 13:00 14 88,38 20,68
7 28.6.2017 12:30 0 62,64 26,74
8 28.6.2017 12:00 0 59,98 26,89
9 28.6.2017 11:30 0 59,17 27,47
10 28.6.2017 11:00 0 58,22 27,52
11 28.6.2017 10:30 0 59,73 27,25
12 28.6.2017 10:00 0 60,46 26,11
13 28.6.2017 09:30 0 61,12 26,28
14 28.6.2017 09:00 0 60,85 25,47
15 28.6.2017 08:30 0 68,52 24,4
16 28.6.2017 08:00 0 67,99 23,81
17 28.6.2017 07:30 0 71,16 23,32
18 28.6.2017 07:00 0 80,34 20,32
19 28.6.2017 06:30 0 85,1 19,07
20 28.6.2017 06:00 0 91,7 17,12
21 28.6.2017 05:30 0 93,31 16,14
22 28.6.2017 05:00 0 93,16 15,82
23 28.6.2017 04:30 0 93,77 15,51
24 28.6.2017 04:00 0 93,43 15,6
25 28.6.2017 03:30 0 93,04 15,87
26 28.6.2017 03:00 0 93,94 15,75
27 28.6.2017 02:30 0 92,48 15,8
28 28.6.2017 02:00 0 90,31 16,12
29 28.6.2017 01:30 0 87,84 16,51
30 28.6.2017 01:00 0 88,64 16,39
31 28.6.2017 00:30 0 90,43 16,24
32 28.6.2017 00:00 0 88,28 16,73
33 27.6.2017 23:30 0 86,06 17,12
34 27.6.2017 23:00 0 83,71 17,39
35 27.6.2017 22:30 0 80,9 17,83
36 27.6.2017 22:00 0 78,63 18,22
37 27.6.2017 21:30 0 78,44 18,66
38 27.6.2017 21:00 0 80 19,05
39 27.6.2017 20:30 0 77,66 19,49
40 27.6.2017 20:00 0 76,83 20,02
41 27.6.2017 19:30 0 74,09 20,56
42 27.6.2017 19:00 0 75,07 21,49
43 27.6.2017 18:30 0 68,84 22,37
44 27.6.2017 18:00 0 70,67 22,56
© 2011 Ministrstvo za kmetijstvo, gozdarstvo in prehrano. Vse pravice pridržane.